sensor_id;sensor_type;location;lat;lon;timestamp;temperature;humidity
51175;DHT22;37240;50.104;20.010;2023-02-05T00:04:07;0.80;99.90
51175;DHT22;37240;50.104;20.010;2023-02-05T00:09:08;0.80;99.90
51175;DHT22;37240;50.104;20.010;2023-02-05T00:14:08;0.80;99.90
51175;DHT22;37240;50.104;20.010;2023-02-05T00:19:09;0.60;99.90
51175;DHT22;37240;50.104;20.010;2023-02-05T00:24:10;0.60;99.90
51175;DHT22;37240;50.104;20.010;2023-02-05T00:29:11;0.60;99.90
51175;DHT22;37240;50.104;20.010;2023-02-05T00:34:11;0.70;99.90
51175;DHT22;37240;50.104;20.010;2023-02-05T00:39:12;0.60;99.90
51175;DHT22;37240;50.104;20.010;2023-02-05T00:44:12;0.50;99.90
51175;DHT22;37240;50.104;20.010;2023-02-05T00:49:13;0.40;99.90
51175;DHT22;37240;50.104;20.010;2023-02-05T00:54:13;0.20;99.90
51175;DHT22;37240;50.104;20.010;2023-02-05T00:59:14;0.20;99.90
51175;DHT22;37240;50.104;20.010;2023-02-05T01:04:14;0.20;99.90
51175;DHT22;37240;50.104;20.010;2023-02-05T01:09:15;0.40;99.90
51175;DHT22;37240;50.104;20.010;2023-02-05T01:14:15;0.50;99.90
51175;DHT22;37240;50.104;20.010;2023-02-05T01:19:16;0.60;99.90
51175;DHT22;37240;50.104;20.010;2023-02-05T01:24:17;0.60;99.90
51175;DHT22;37240;50.104;20.010;2023-02-05T01:29:17;0.60;99.90
51175;DHT22;37240;50.104;20.010;2023-02-05T01:34:18;0.70;99.90
51175;DHT22;37240;50.104;20.010;2023-02-05T01:39:19;0.70;99.90
51175;DHT22;37240;50.104;20.010;2023-02-05T01:44:21;0.80;99.90
51175;DHT22;37240;50.104;20.010;2023-02-05T01:49:41;0.90;99.90
51175;DHT22;37240;50.104;20.010;2023-02-05T01:54:44;0.90;99.90
51175;DHT22;37240;50.104;20.010;2023-02-05T01:59:46;0.90;99.90
51175;DHT22;37240;50.104;20.010;2023-02-05T02:04:57;0.90;99.90
51175;DHT22;37240;50.104;20.010;2023-02-05T02:09:59;0.90;99.90
51175;DHT22;37240;50.104;20.010;2023-02-05T02:15:03;0.90;99.90
51175;DHT22;37240;50.104;20.010;2023-02-05T02:20:10;0.90;99.90
51175;DHT22;37240;50.104;20.010;2023-02-05T02:31:09;0.70;99.90
51175;DHT22;37240;50.104;20.010;2023-02-05T02:36:32;0.60;99.90
51175;DHT22;37240;50.104;20.010;2023-02-05T02:41:52;0.50;99.90
51175;DHT22;37240;50.104;20.010;2023-02-05T02:46:56;0.50;99.90
51175;DHT22;37240;50.104;20.010;2023-02-05T02:52:01;0.40;99.90
51175;DHT22;37240;50.104;20.010;2023-02-05T02:57:04;0.50;99.90
51175;DHT22;37240;50.104;20.010;2023-02-05T03:02:09;0.40;99.90
51175;DHT22;37240;50.104;20.010;2023-02-05T03:07:21;0.40;99.90
51175;DHT22;37240;50.104;20.010;2023-02-05T03:12:24;0.20;99.80
51175;DHT22;37240;50.104;20.010;2023-02-05T03:17:25;0.10;99.90
51175;DHT22;37240;50.104;20.010;2023-02-05T03:22:26;0.10;99.90
51175;DHT22;37240;50.104;20.010;2023-02-05T03:27:27;0.10;99.90
51175;DHT22;37240;50.104;20.010;2023-02-05T03:48:40;-0.10;99.80
51175;DHT22;37240;50.104;20.010;2023-02-05T03:54:10;-0.20;99.70
51175;DHT22;37240;50.104;20.010;2023-02-05T03:59:13;-0.30;99.60
51175;DHT22;37240;50.104;20.010;2023-02-05T04:04:15;-0.40;99.90
51175;DHT22;37240;50.104;20.010;2023-02-05T04:09:15;-0.50;99.90
51175;DHT22;37240;50.104;20.010;2023-02-05T04:14:16;-0.50;99.90
51175;DHT22;37240;50.104;20.010;2023-02-05T04:19:16;-0.50;99.90
51175;DHT22;37240;50.104;20.010;2023-02-05T04:24:17;-0.50;99.90
51175;DHT22;37240;50.104;20.010;2023-02-05T04:29:17;-0.40;99.70
51175;DHT22;37240;50.104;20.010;2023-02-05T04:34:18;-0.30;99.50
51175;DHT22;37240;50.104;20.010;2023-02-05T04:39:19;-0.40;99.40
51175;DHT22;37240;50.104;20.010;2023-02-05T04:44:19;-0.50;99.30
51175;DHT22;37240;50.104;20.010;2023-02-05T04:49:20;-0.50;99.20
51175;DHT22;37240;50.104;20.010;2023-02-05T04:54:20;-0.60;99.20
51175;DHT22;37240;50.104;20.010;2023-02-05T04:59:21;-0.60;99.00
51175;DHT22;37240;50.104;20.010;2023-02-05T05:04:21;-0.60;98.70
51175;DHT22;37240;50.104;20.010;2023-02-05T05:09:22;-0.60;98.50
51175;DHT22;37240;50.104;20.010;2023-02-05T05:14:22;-0.70;98.40
51175;DHT22;37240;50.104;20.010;2023-02-05T05:19:23;-0.60;98.40
51175;DHT22;37240;50.104;20.010;2023-02-05T05:24:24;-0.60;98.30
51175;DHT22;37240;50.104;20.010;2023-02-05T05:29:24;-0.70;98.20
51175;DHT22;37240;50.104;20.010;2023-02-05T05:34:25;-0.80;98.30
51175;DHT22;37240;50.104;20.010;2023-02-05T05:39:25;-0.80;98.90
51175;DHT22;37240;50.104;20.010;2023-02-05T05:44:26;-1.00;98.80
51175;DHT22;37240;50.104;20.010;2023-02-05T05:49:27;-1.00;98.80
51175;DHT22;37240;50.104;20.010;2023-02-05T05:54:27;-1.00;98.50
51175;DHT22;37240;50.104;20.010;2023-02-05T05:59:28;-1.00;98.80
51175;DHT22;37240;50.104;20.010;2023-02-05T06:04:28;-1.10;99.20
51175;DHT22;37240;50.104;20.010;2023-02-05T06:09:29;-1.00;99.30
51175;DHT22;37240;50.104;20.010;2023-02-05T06:14:29;-1.00;99.40
51175;DHT22;37240;50.104;20.010;2023-02-05T06:19:30;-0.90;99.50
51175;DHT22;37240;50.104;20.010;2023-02-05T06:24:31;-0.80;99.60
51175;DHT22;37240;50.104;20.010;2023-02-05T06:29:31;-0.70;99.50
51175;DHT22;37240;50.104;20.010;2023-02-05T06:34:32;-0.70;99.00
51175;DHT22;37240;50.104;20.010;2023-02-05T06:39:32;-0.50;99.10
51175;DHT22;37240;50.104;20.010;2023-02-05T06:44:33;-0.40;98.90
51175;DHT22;37240;50.104;20.010;2023-02-05T06:49:33;-0.30;98.80
51175;DHT22;37240;50.104;20.010;2023-02-05T06:54:34;-0.20;98.80
51175;DHT22;37240;50.104;20.010;2023-02-05T06:59:34;-0.10;98.60
51175;DHT22;37240;50.104;20.010;2023-02-05T07:04:35;0.00;98.70
51175;DHT22;37240;50.104;20.010;2023-02-05T07:09:35;0.20;98.50
51175;DHT22;37240;50.104;20.010;2023-02-05T07:14:40;0.30;98.10
51175;DHT22;37240;50.104;20.010;2023-02-05T07:19:41;0.30;97.60
51175;DHT22;37240;50.104;20.010;2023-02-05T07:24:41;0.40;97.60
51175;DHT22;37240;50.104;20.010;2023-02-05T07:29:42;0.50;97.40
51175;DHT22;37240;50.104;20.010;2023-02-05T07:34:43;0.60;97.70
51175;DHT22;37240;50.104;20.010;2023-02-05T07:39:43;0.60;97.30
51175;DHT22;37240;50.104;20.010;2023-02-05T07:44:44;0.70;96.90
51175;DHT22;37240;50.104;20.010;2023-02-05T07:49:44;0.70;97.00
51175;DHT22;37240;50.104;20.010;2023-02-05T07:54:45;0.70;97.30
51175;DHT22;37240;50.104;20.010;2023-02-05T07:59:45;0.90;97.60
51175;DHT22;37240;50.104;20.010;2023-02-05T08:04:46;1.00;97.60
51175;DHT22;37240;50.104;20.010;2023-02-05T08:09:46;1.00;97.50
51175;DHT22;37240;50.104;20.010;2023-02-05T08:14:47;1.10;97.70
51175;DHT22;37240;50.104;20.010;2023-02-05T08:19:49;1.10;97.30
51175;DHT22;37240;50.104;20.010;2023-02-05T08:24:50;1.20;97.20
51175;DHT22;37240;50.104;20.010;2023-02-05T08:29:50;1.30;96.90
51175;DHT22;37240;50.104;20.010;2023-02-05T08:34:51;1.30;96.30
51175;DHT22;37240;50.104;20.010;2023-02-05T08:39:52;1.40;95.70
51175;DHT22;37240;50.104;20.010;2023-02-05T08:44:52;1.50;95.70
51175;DHT22;37240;50.104;20.010;2023-02-05T08:49:53;1.60;95.00
51175;DHT22;37240;50.104;20.010;2023-02-05T08:54:53;1.80;94.50
51175;DHT22;37240;50.104;20.010;2023-02-05T08:59:54;1.90;94.30
51175;DHT22;37240;50.104;20.010;2023-02-05T09:04:55;1.90;93.40
51175;DHT22;37240;50.104;20.010;2023-02-05T09:09:56;2.00;92.80
51175;DHT22;37240;50.104;20.010;2023-02-05T09:14:56;1.90;92.00
51175;DHT22;37240;50.104;20.010;2023-02-05T09:19:57;1.80;91.50
51175;DHT22;37240;50.104;20.010;2023-02-05T09:24:57;1.80;90.20
51175;DHT22;37240;50.104;20.010;2023-02-05T09:29:58;1.70;90.40
51175;DHT22;37240;50.104;20.010;2023-02-05T09:34:58;1.60;89.60
51175;DHT22;37240;50.104;20.010;2023-02-05T09:39:59;1.60;87.50
51175;DHT22;37240;50.104;20.010;2023-02-05T09:50:42;1.30;89.40
51175;DHT22;37240;50.104;20.010;2023-02-05T09:55:43;1.20;89.70
51175;DHT22;37240;50.104;20.010;2023-02-05T10:00:48;1.30;89.40
51175;DHT22;37240;50.104;20.010;2023-02-05T10:12:13;1.20;89.10
51175;DHT22;37240;50.104;20.010;2023-02-05T10:21:55;1.30;89.00
51175;DHT22;37240;50.104;20.010;2023-02-05T10:27:21;1.20;89.80
51175;DHT22;37240;50.104;20.010;2023-02-05T10:37:48;1.30;90.30
51175;DHT22;37240;50.104;20.010;2023-02-05T10:42:54;1.40;90.30
51175;DHT22;37240;50.104;20.010;2023-02-05T10:53:27;1.70;89.10
51175;DHT22;37240;50.104;20.010;2023-02-05T11:04:05;2.10;88.60
51175;DHT22;37240;50.104;20.010;2023-02-05T11:09:28;2.20;87.00
51175;DHT22;37240;50.104;20.010;2023-02-05T11:14:40;2.20;85.10
51175;DHT22;37240;50.104;20.010;2023-02-05T11:19:58;2.30;84.30
51175;DHT22;37240;50.104;20.010;2023-02-05T11:30:35;2.40;81.60
51175;DHT22;37240;50.104;20.010;2023-02-05T11:35:36;2.40;81.50
51175;DHT22;37240;50.104;20.010;2023-02-05T11:40:37;2.50;83.60
51175;DHT22;37240;50.104;20.010;2023-02-05T11:45:38;2.70;80.70
51175;DHT22;37240;50.104;20.010;2023-02-05T11:50:43;2.70;78.40
51175;DHT22;37240;50.104;20.010;2023-02-05T11:55:43;2.70;76.90
51175;DHT22;37240;50.104;20.010;2023-02-05T12:00:56;2.60;75.60
51175;DHT22;37240;50.104;20.010;2023-02-05T12:06:19;2.60;74.50
51175;DHT22;37240;50.104;20.010;2023-02-05T12:22:43;2.80;73.30
51175;DHT22;37240;50.104;20.010;2023-02-05T12:28:01;2.90;73.80
51175;DHT22;37240;50.104;20.010;2023-02-05T12:43:46;3.00;73.10
51175;DHT22;37240;50.104;20.010;2023-02-05T12:59:32;3.10;74.20
51175;DHT22;37240;50.104;20.010;2023-02-05T13:04:38;3.00;74.30
51175;DHT22;37240;50.104;20.010;2023-02-05T13:15:22;3.00;74.20
51175;DHT22;37240;50.104;20.010;2023-02-05T13:20:45;3.00;74.50
51175;DHT22;37240;50.104;20.010;2023-02-05T13:25:48;2.90;73.80
51175;DHT22;37240;50.104;20.010;2023-02-05T13:30:53;2.90;74.10
51175;DHT22;37240;50.104;20.010;2023-02-05T14:07:40;2.50;76.50
51175;DHT22;37240;50.104;20.010;2023-02-05T14:12:42;2.40;77.10
51175;DHT22;37240;50.104;20.010;2023-02-05T14:22:43;2.40;78.00
51175;DHT22;37240;50.104;20.010;2023-02-05T14:27:47;2.40;78.30
51175;DHT22;37240;50.104;20.010;2023-02-05T14:37:48;2.30;79.40
51175;DHT22;37240;50.104;20.010;2023-02-05T14:42:52;2.20;79.10
51175;DHT22;37240;50.104;20.010;2023-02-05T14:47:55;2.20;79.50
51175;DHT22;37240;50.104;20.010;2023-02-05T14:53:00;2.10;80.40
51175;DHT22;37240;50.104;20.010;2023-02-05T14:58:07;2.10;81.20
51175;DHT22;37240;50.104;20.010;2023-02-05T15:03:23;2.00;81.80
51175;DHT22;37240;50.104;20.010;2023-02-05T15:13:35;2.00;82.20
51175;DHT22;37240;50.104;20.010;2023-02-05T15:23:40;1.80;83.50
51175;DHT22;37240;50.104;20.010;2023-02-05T15:29:11;1.70;84.00
51175;DHT22;37240;50.104;20.010;2023-02-05T15:40:01;1.60;84.30
51175;DHT22;37240;50.104;20.010;2023-02-05T15:50:18;1.50;85.80
51175;DHT22;37240;50.104;20.010;2023-02-05T15:55:19;1.50;86.60
51175;DHT22;37240;50.104;20.010;2023-02-05T16:00:25;1.50;87.30
51175;DHT22;37240;50.104;20.010;2023-02-05T16:05:28;1.50;88.20
51175;DHT22;37240;50.104;20.010;2023-02-05T16:10:32;1.40;88.60
51175;DHT22;37240;50.104;20.010;2023-02-05T16:15:44;1.50;89.60
51175;DHT22;37240;50.104;20.010;2023-02-05T16:20:52;1.40;90.00
51175;DHT22;37240;50.104;20.010;2023-02-05T16:31:06;1.30;90.50
51175;DHT22;37240;50.104;20.010;2023-02-05T16:36:15;1.40;91.00
51175;DHT22;37240;50.104;20.010;2023-02-05T16:41:24;1.40;91.00
51175;DHT22;37240;50.104;20.010;2023-02-05T16:46:26;1.40;91.20
51175;DHT22;37240;50.104;20.010;2023-02-05T16:57:12;1.40;91.60
51175;DHT22;37240;50.104;20.010;2023-02-05T17:02:35;1.40;91.60
51175;DHT22;37240;50.104;20.010;2023-02-05T17:07:36;1.30;91.40
51175;DHT22;37240;50.104;20.010;2023-02-05T17:12:39;1.30;91.70
51175;DHT22;37240;50.104;20.010;2023-02-05T17:17:52;1.30;91.60
51175;DHT22;37240;50.104;20.010;2023-02-05T17:28:08;1.40;92.00
51175;DHT22;37240;50.104;20.010;2023-02-05T17:33:16;1.40;92.00
51175;DHT22;37240;50.104;20.010;2023-02-05T17:38:18;1.40;91.90
51175;DHT22;37240;50.104;20.010;2023-02-05T17:43:19;1.40;91.80
51175;DHT22;37240;50.104;20.010;2023-02-05T17:48:19;1.30;91.90
51175;DHT22;37240;50.104;20.010;2023-02-05T17:53:20;1.30;92.10
51175;DHT22;37240;50.104;20.010;2023-02-05T17:58:20;1.30;92.20
51175;DHT22;37240;50.104;20.010;2023-02-05T18:03:21;1.30;92.00
51175;DHT22;37240;50.104;20.010;2023-02-05T18:08:21;1.30;92.10
51175;DHT22;37240;50.104;20.010;2023-02-05T18:13:22;1.30;92.10
51175;DHT22;37240;50.104;20.010;2023-02-05T18:18:22;1.30;92.20
51175;DHT22;37240;50.104;20.010;2023-02-05T18:23:23;1.30;92.30
51175;DHT22;37240;50.104;20.010;2023-02-05T18:28:24;1.30;92.30
51175;DHT22;37240;50.104;20.010;2023-02-05T18:33:25;1.30;92.50
51175;DHT22;37240;50.104;20.010;2023-02-05T18:38:28;1.20;92.60
51175;DHT22;37240;50.104;20.010;2023-02-05T18:43:28;1.20;92.80
51175;DHT22;37240;50.104;20.010;2023-02-05T18:48:29;1.20;93.00
51175;DHT22;37240;50.104;20.010;2023-02-05T18:53:31;1.20;93.10
51175;DHT22;37240;50.104;20.010;2023-02-05T18:58:32;1.20;93.10
51175;DHT22;37240;50.104;20.010;2023-02-05T19:03:33;1.30;93.10
51175;DHT22;37240;50.104;20.010;2023-02-05T19:08:34;1.30;93.10
51175;DHT22;37240;50.104;20.010;2023-02-05T19:13:34;1.20;93.10
51175;DHT22;37240;50.104;20.010;2023-02-05T19:18:35;1.20;93.10
51175;DHT22;37240;50.104;20.010;2023-02-05T19:23:36;1.20;93.10
51175;DHT22;37240;50.104;20.010;2023-02-05T19:28:37;1.20;93.20
51175;DHT22;37240;50.104;20.010;2023-02-05T19:33:39;1.20;93.00
51175;DHT22;37240;50.104;20.010;2023-02-05T19:38:40;1.20;93.10
51175;DHT22;37240;50.104;20.010;2023-02-05T19:43:42;1.20;92.90
51175;DHT22;37240;50.104;20.010;2023-02-05T19:48:43;1.20;93.10
51175;DHT22;37240;50.104;20.010;2023-02-05T19:53:44;1.20;92.90
51175;DHT22;37240;50.104;20.010;2023-02-05T19:58:48;1.20;93.00
51175;DHT22;37240;50.104;20.010;2023-02-05T20:03:51;1.20;93.10
51175;DHT22;37240;50.104;20.010;2023-02-05T20:08:52;1.20;93.10
51175;DHT22;37240;50.104;20.010;2023-02-05T20:13:52;1.20;93.20
51175;DHT22;37240;50.104;20.010;2023-02-05T20:18:55;1.20;93.30
51175;DHT22;37240;50.104;20.010;2023-02-05T20:23:56;1.20;93.40
51175;DHT22;37240;50.104;20.010;2023-02-05T20:28:57;1.20;93.70
51175;DHT22;37240;50.104;20.010;2023-02-05T20:33:58;1.10;93.60
51175;DHT22;37240;50.104;20.010;2023-02-05T20:39:01;1.10;93.60
51175;DHT22;37240;50.104;20.010;2023-02-05T20:44:02;1.10;93.70
51175;DHT22;37240;50.104;20.010;2023-02-05T20:49:02;1.10;93.60
51175;DHT22;37240;50.104;20.010;2023-02-05T20:54:03;1.10;93.50
51175;DHT22;37240;50.104;20.010;2023-02-05T20:59:05;1.10;93.60
51175;DHT22;37240;50.104;20.010;2023-02-05T21:04:08;1.10;93.50
51175;DHT22;37240;50.104;20.010;2023-02-05T21:09:09;1.10;93.70
51175;DHT22;37240;50.104;20.010;2023-02-05T21:14:10;1.10;93.70
51175;DHT22;37240;50.104;20.010;2023-02-05T21:19:11;1.10;93.60
51175;DHT22;37240;50.104;20.010;2023-02-05T21:24:13;1.00;93.50
51175;DHT22;37240;50.104;20.010;2023-02-05T21:29:16;1.00;93.60
51175;DHT22;37240;50.104;20.010;2023-02-05T21:34:19;1.00;93.10
51175;DHT22;37240;50.104;20.010;2023-02-05T21:39:21;1.00;93.10
51175;DHT22;37240;50.104;20.010;2023-02-05T21:44:22;1.00;93.20
51175;DHT22;37240;50.104;20.010;2023-02-05T21:49:22;1.00;93.30
51175;DHT22;37240;50.104;20.010;2023-02-05T21:54:23;0.90;93.50
51175;DHT22;37240;50.104;20.010;2023-02-05T21:59:23;0.90;93.60
51175;DHT22;37240;50.104;20.010;2023-02-05T22:04:24;0.90;93.70
51175;DHT22;37240;50.104;20.010;2023-02-05T22:09:25;0.90;94.00
51175;DHT22;37240;50.104;20.010;2023-02-05T22:14:25;1.00;94.00
51175;DHT22;37240;50.104;20.010;2023-02-05T22:19:26;1.00;94.10
51175;DHT22;37240;50.104;20.010;2023-02-05T22:24:27;1.10;94.30
51175;DHT22;37240;50.104;20.010;2023-02-05T22:29:27;1.10;94.40
51175;DHT22;37240;50.104;20.010;2023-02-05T22:34:28;1.10;94.30
51175;DHT22;37240;50.104;20.010;2023-02-05T22:39:28;1.10;94.30
51175;DHT22;37240;50.104;20.010;2023-02-05T22:44:29;1.00;94.20
51175;DHT22;37240;50.104;20.010;2023-02-05T22:49:30;1.00;94.40
51175;DHT22;37240;50.104;20.010;2023-02-05T22:54:30;1.00;94.50
51175;DHT22;37240;50.104;20.010;2023-02-05T22:59:31;1.10;94.80
51175;DHT22;37240;50.104;20.010;2023-02-05T23:04:31;1.00;94.30
51175;DHT22;37240;50.104;20.010;2023-02-05T23:09:32;1.00;94.30
51175;DHT22;37240;50.104;20.010;2023-02-05T23:14:32;1.00;94.30
51175;DHT22;37240;50.104;20.010;2023-02-05T23:19:33;1.00;94.30
51175;DHT22;37240;50.104;20.010;2023-02-05T23:24:35;1.00;94.50
51175;DHT22;37240;50.104;20.010;2023-02-05T23:29:36;1.00;94.50
51175;DHT22;37240;50.104;20.010;2023-02-05T23:34:36;1.00;94.50
51175;DHT22;37240;50.104;20.010;2023-02-05T23:39:37;1.00;94.60
51175;DHT22;37240;50.104;20.010;2023-02-05T23:44:37;1.00;94.60
51175;DHT22;37240;50.104;20.010;2023-02-05T23:49:38;1.00;94.50
51175;DHT22;37240;50.104;20.010;2023-02-05T23:54:38;1.00;94.30
51175;DHT22;37240;50.104;20.010;2023-02-05T23:59:39;0.90;94.30
